createdAt,value
2023-05-24T00:00:32.434Z,18.6047
2023-05-24T00:01:34.126Z,18.3629
2023-05-24T00:02:35.922Z,18.6475
2023-05-24T00:03:37.833Z,18.5941
2023-05-24T00:04:39.591Z,18.3344
2023-05-24T00:05:41.260Z,19.2033
2023-05-24T00:06:42.905Z,18.0943
2023-05-24T00:07:44.608Z,18.9928
2023-05-24T00:08:46.280Z,18.1133
2023-05-24T00:09:47.962Z,17.9766
2023-05-24T00:10:49.639Z,18.4669
2023-05-24T00:11:51.322Z,17.8416
2023-05-24T00:12:53.003Z,17.5286
2023-05-24T00:13:54.693Z,18.2026
2023-05-24T00:14:56.385Z,18.8364
2023-05-24T00:15:58.065Z,18.8590
2023-05-24T00:16:59.733Z,17.8132
2023-05-24T00:18:01.568Z,18.4153
2023-05-24T00:19:03.265Z,18.3148
2023-05-24T00:20:07.290Z,18.8471
2023-05-24T00:21:05.761Z,19.3944
2023-05-24T00:22:07.467Z,18.6075
2023-05-24T00:23:09.141Z,19.1132
2023-05-24T00:24:10.846Z,18.1432
2023-05-24T00:25:12.538Z,18.5182
2023-05-24T00:26:14.202Z,18.9057
2023-05-24T00:27:15.909Z,18.7097
2023-05-24T00:28:17.569Z,18.7987
2023-05-24T00:29:19.269Z,18.8082
2023-05-24T00:30:20.975Z,19.1755
2023-05-24T00:31:22.704Z,18.6980
2023-05-24T00:32:24.369Z,20.0359
2023-05-24T00:33:26.055Z,19.3923
2023-05-24T00:34:27.732Z,19.6015
2023-05-24T00:35:29.412Z,19.5304
2023-05-24T00:36:31.176Z,18.6208
2023-05-24T00:37:32.811Z,18.8427
2023-05-24T00:38:34.482Z,18.3936
2023-05-24T00:39:36.158Z,18.5092
2023-05-24T00:40:38.879Z,18.4523
2023-05-24T00:41:40.675Z,18.9656
2023-05-24T00:42:42.588Z,18.5619
2023-05-24T00:43:44.513Z,19.1660
2023-05-24T00:44:46.185Z,18.6539
2023-05-24T00:45:47.880Z,17.7327
2023-05-24T00:46:49.526Z,18.5167
2023-05-24T00:47:51.260Z,19.9449
2023-05-24T00:48:52.915Z,19.1207
2023-05-24T00:49:54.596Z,19.4096
2023-05-24T00:50:56.261Z,19.4400
2023-05-24T00:51:57.965Z,19.7041
2023-05-24T00:52:59.659Z,20.1260
2023-05-24T00:54:02.359Z,19.2575
2023-05-24T00:55:04.053Z,19.9323
2023-05-24T00:56:05.727Z,20.1060
2023-05-24T00:57:07.389Z,19.3393
2023-05-24T00:58:09.086Z,19.4671
2023-05-24T00:59:10.763Z,19.0202
2023-05-24T01:00:12.452Z,18.8481
2023-05-24T01:01:14.147Z,19.6856
2023-05-24T01:02:15.841Z,19.2134
2023-05-24T01:03:17.661Z,19.1862
2023-05-24T01:04:19.555Z,19.3145
2023-05-24T01:05:21.477Z,19.2572
2023-05-24T01:06:24.522Z,19.9584
2023-05-24T01:07:26.410Z,18.3363
2023-05-24T01:08:28.328Z,19.3039
2023-05-24T01:09:30.242Z,19.6147
2023-05-24T01:10:32.194Z,19.2849
2023-05-24T01:11:34.087Z,20.3193
2023-05-24T01:12:36.012Z,19.9644
2023-05-24T01:13:37.931Z,20.0954
2023-05-24T01:14:39.863Z,19.9233
2023-05-24T01:15:41.811Z,18.6330
2023-05-24T01:16:43.757Z,19.7635
2023-05-24T01:17:45.709Z,19.9789
2023-05-24T01:18:47.605Z,20.3023
2023-05-24T01:19:49.637Z,19.5578
2023-05-24T01:20:51.612Z,20.5187
2023-05-24T01:21:53.516Z,19.5755
2023-05-24T01:22:55.440Z,20.8664
2023-05-24T01:23:57.138Z,20.8378
2023-05-24T01:24:58.836Z,21.1361
2023-05-24T01:26:00.740Z,21.2153
2023-05-24T01:27:02.658Z,20.4462
2023-05-24T01:28:04.558Z,19.4336
2023-05-24T01:29:06.499Z,19.2717
2023-05-24T01:30:08.209Z,20.9433
2023-05-24T01:31:09.891Z,21.1204
2023-05-24T01:32:11.586Z,21.0741
2023-05-24T01:33:13.259Z,20.6819
2023-05-24T01:34:14.949Z,20.4959
2023-05-24T01:35:16.610Z,19.7389
2023-05-24T01:36:18.290Z,20.5483
2023-05-24T01:37:20.041Z,20.8293
2023-05-24T01:38:21.711Z,21.5278
2023-05-24T01:39:23.426Z,21.5671
2023-05-24T01:40:25.125Z,20.9806
2023-05-24T01:41:26.801Z,20.7502
2023-05-24T01:42:28.718Z,20.3346
2023-05-24T01:43:30.651Z,20.5758
2023-05-24T01:44:32.563Z,20.1806
2023-05-24T01:45:34.499Z,20.4560
2023-05-24T01:46:36.441Z,21.1526
2023-05-24T01:47:38.397Z,20.4393
2023-05-24T01:48:40.288Z,20.1737
2023-05-24T01:49:42.194Z,20.7218
2023-05-24T01:50:44.271Z,20.1714
2023-05-24T01:51:46.240Z,21.4798
2023-05-24T01:52:48.173Z,20.9078
2023-05-24T01:53:50.112Z,19.4749
2023-05-24T01:54:52.021Z,20.0192
2023-05-24T01:55:53.954Z,19.8679
2023-05-24T01:56:55.836Z,20.9527
2023-05-24T01:57:57.765Z,20.5704
2023-05-24T01:58:59.676Z,20.4783
2023-05-24T02:00:01.580Z,20.5666
2023-05-24T02:01:03.555Z,20.9683
2023-05-24T02:02:05.448Z,20.4299
2023-05-24T02:03:07.676Z,20.5802
2023-05-24T02:04:09.631Z,20.0211
2023-05-24T02:05:11.544Z,21.2374
2023-05-24T02:06:13.452Z,21.0717
2023-05-24T02:07:15.364Z,20.3389
2023-05-24T02:08:17.323Z,20.8097
2023-05-24T02:09:19.202Z,20.4736
2023-05-24T02:10:21.121Z,21.2277
2023-05-24T02:11:23.047Z,21.4346
2023-05-24T02:12:25.012Z,21.5862
2023-05-24T02:13:26.960Z,20.6942
2023-05-24T02:14:28.842Z,20.6830
2023-05-24T02:15:30.766Z,21.2488
2023-05-24T02:16:32.633Z,21.1585
2023-05-24T02:17:34.601Z,20.6722
2023-05-24T02:18:36.500Z,21.5410
2023-05-24T02:19:38.417Z,22.5151
2023-05-24T02:20:40.668Z,21.9528
2023-05-24T02:21:42.698Z,22.4191
2023-05-24T02:22:44.625Z,22.6367
2023-05-24T02:23:46.523Z,21.5122
2023-05-24T02:24:48.526Z,21.7520
2023-05-24T02:25:50.472Z,21.1120
2023-05-24T02:26:52.431Z,20.6131
2023-05-24T02:27:54.323Z,20.2273
2023-05-24T02:28:56.257Z,22.0436
2023-05-24T02:29:58.148Z,21.5308
2023-05-24T02:31:00.126Z,21.2633
2023-05-24T02:32:02.054Z,21.1279
2023-05-24T02:33:04.039Z,22.4294
2023-05-24T02:34:05.917Z,21.9380
2023-05-24T02:35:07.830Z,20.9759
2023-05-24T02:36:09.726Z,21.3312
2023-05-24T02:37:11.699Z,21.4829
2023-05-24T02:38:13.627Z,21.4276
2023-05-24T02:39:15.583Z,21.0178
2023-05-24T02:40:17.500Z,21.7233
2023-05-24T02:41:19.424Z,21.2439
2023-05-24T02:42:21.355Z,21.8840
2023-05-24T02:43:23.256Z,20.8751
2023-05-24T02:44:25.155Z,21.1093
2023-05-24T02:45:27.096Z,21.8711
2023-05-24T02:46:29.037Z,21.7672
2023-05-24T02:47:30.929Z,21.3787
2023-05-24T02:48:32.808Z,21.8986
2023-05-24T02:49:34.714Z,23.1600
2023-05-24T02:50:36.644Z,23.5334
2023-05-24T02:51:38.540Z,21.6310
2023-05-24T02:52:40.474Z,21.8705
2023-05-24T02:53:42.388Z,21.6584
2023-05-24T02:54:44.299Z,22.2405
2023-05-24T02:55:46.213Z,22.7228
2023-05-24T02:56:48.124Z,22.5509
2023-05-24T02:57:50.067Z,21.3237
2023-05-24T02:58:51.958Z,21.0699
2023-05-24T02:59:53.862Z,22.2532
2023-05-24T03:00:55.773Z,21.0069
2023-05-24T03:01:57.924Z,21.4003
2023-05-24T03:02:59.950Z,20.4285
2023-05-24T03:04:02.043Z,22.1066
2023-05-24T03:05:03.970Z,22.6798
2023-05-24T03:06:05.901Z,22.1605
2023-05-24T03:07:07.834Z,22.3170
2023-05-24T03:08:09.722Z,21.9051
2023-05-24T03:09:11.656Z,23.0113
2023-05-24T03:10:15.834Z,21.5826
2023-05-24T03:11:14.613Z,22.9456
2023-05-24T03:12:16.529Z,22.2692
2023-05-24T03:13:18.420Z,22.3835
2023-05-24T03:14:20.348Z,21.9963
2023-05-24T03:15:22.263Z,21.6175
2023-05-24T03:16:24.226Z,21.5303
2023-05-24T03:17:26.146Z,22.1910
2023-05-24T03:18:28.034Z,21.8416
2023-05-24T03:19:29.949Z,21.8499
2023-05-24T03:20:31.930Z,20.8822
2023-05-24T03:21:33.819Z,21.6469
2023-05-24T03:22:35.774Z,21.2509
2023-05-24T03:23:37.684Z,22.4690
2023-05-24T03:24:39.586Z,22.9209
2023-05-24T03:25:41.497Z,20.5585
2023-05-24T03:26:43.412Z,20.7306
2023-05-24T03:27:45.343Z,21.8624
2023-05-24T03:28:47.271Z,22.3509
2023-05-24T03:29:49.178Z,21.3836
2023-05-24T03:30:51.087Z,21.6554
2023-05-24T03:31:53.087Z,22.5960
2023-05-24T03:32:55.000Z,22.1672
2023-05-24T03:33:56.870Z,20.9570
2023-05-24T03:34:58.786Z,20.9138
2023-05-24T03:36:00.696Z,21.3970
2023-05-24T03:37:02.605Z,21.5756
2023-05-24T03:38:04.527Z,22.6534
2023-05-24T03:39:06.435Z,22.4500
2023-05-24T03:40:08.346Z,22.2843
2023-05-24T03:41:10.266Z,22.6178
2023-05-24T03:42:12.187Z,22.5719
2023-05-24T03:43:14.105Z,22.2635
2023-05-24T03:44:16.026Z,22.2704
2023-05-24T03:45:26.981Z,21.6726
2023-05-24T03:46:19.198Z,22.6350
2023-05-24T03:47:21.186Z,22.2097
2023-05-24T03:48:24.081Z,20.7886
2023-05-24T03:49:26.015Z,22.0104
2023-05-24T03:50:27.918Z,21.4071
2023-05-24T03:51:29.916Z,20.8026
2023-05-24T03:52:31.759Z,21.2195
2023-05-24T03:53:33.671Z,21.3708
2023-05-24T03:54:35.595Z,21.9343
2023-05-24T03:55:37.514Z,21.6654
2023-05-24T03:56:39.437Z,21.7806
2023-05-24T03:57:41.361Z,21.7492
2023-05-24T03:58:43.332Z,22.6272
2023-05-24T03:59:45.245Z,21.0970
2023-05-24T04:00:47.206Z,21.5758
2023-05-24T04:01:49.227Z,22.2884
2023-05-24T04:02:51.335Z,21.1907
2023-05-24T04:03:53.352Z,21.0590
2023-05-24T04:04:55.312Z,20.9453
2023-05-24T04:05:57.271Z,21.5091
2023-05-24T04:06:59.256Z,21.2317
2023-05-24T04:08:01.268Z,20.3118
2023-05-24T04:09:03.299Z,22.3860
2023-05-24T04:10:05.288Z,20.7884
2023-05-24T04:11:07.221Z,20.9773
2023-05-24T04:12:09.214Z,21.1852
2023-05-24T04:13:11.155Z,20.7380
2023-05-24T04:14:13.133Z,21.5472
2023-05-24T04:15:15.102Z,20.9818
2023-05-24T04:16:17.123Z,21.0329
2023-05-24T04:17:19.176Z,19.9454
2023-05-24T04:18:21.204Z,20.9750
2023-05-24T04:19:23.158Z,20.7270
2023-05-24T04:20:25.187Z,20.6692
2023-05-24T04:21:27.157Z,21.9512
2023-05-24T04:22:29.161Z,21.3676
2023-05-24T04:23:31.164Z,21.4943
2023-05-24T04:24:33.157Z,20.8916
2023-05-24T04:25:35.137Z,22.0668
2023-05-24T04:26:37.105Z,20.4776
2023-05-24T04:27:39.123Z,20.7452
2023-05-24T04:28:41.163Z,19.9491
2023-05-24T04:29:43.110Z,21.8487
2023-05-24T04:30:45.048Z,21.2258
2023-05-24T04:31:47.198Z,21.0321
2023-05-24T04:32:49.286Z,20.6739
2023-05-24T04:33:51.263Z,20.4254
2023-05-24T04:34:53.232Z,20.9657
2023-05-24T04:35:55.296Z,21.4599
2023-05-24T04:36:57.241Z,21.7158
2023-05-24T04:37:59.228Z,21.5174
2023-05-24T04:39:01.207Z,20.2421
2023-05-24T04:40:03.238Z,21.3895
2023-05-24T04:41:05.184Z,20.0771
2023-05-24T04:42:07.150Z,21.1466
2023-05-24T04:43:09.152Z,22.1984
2023-05-24T04:44:11.193Z,21.9999
2023-05-24T04:45:13.282Z,20.8537
2023-05-24T04:46:16.220Z,20.9425
2023-05-24T04:47:18.243Z,20.7632
2023-05-24T04:48:20.210Z,21.6242
2023-05-24T04:49:22.119Z,21.0355
2023-05-24T04:50:23.890Z,21.1080
2023-05-24T04:51:25.654Z,20.6140
2023-05-24T04:52:27.431Z,20.7246
2023-05-24T04:53:29.230Z,21.3805
2023-05-24T04:54:31.279Z,21.2215
2023-05-24T04:55:33.346Z,21.1220
2023-05-24T04:56:35.338Z,19.6217
2023-05-24T04:57:37.311Z,20.7768
2023-05-24T04:58:39.500Z,20.3534
2023-05-24T04:59:41.392Z,20.1123
2023-05-24T05:00:43.560Z,20.3342
2023-05-24T05:01:45.601Z,19.6193
2023-05-24T05:02:47.609Z,19.4257
2023-05-24T05:03:49.573Z,20.6235
2023-05-24T05:04:51.343Z,20.0619
2023-05-24T05:05:53.169Z,21.3396
2023-05-24T05:06:54.906Z,20.8964
2023-05-24T05:07:56.715Z,19.6282
2023-05-24T05:08:58.534Z,19.6210
2023-05-24T05:10:00.638Z,19.7147
2023-05-24T05:11:02.618Z,19.5594
2023-05-24T05:12:04.576Z,20.7436
2023-05-24T05:13:06.524Z,19.5580
2023-05-24T05:14:08.459Z,21.2421
2023-05-24T05:15:10.491Z,21.1983
2023-05-24T05:16:12.500Z,20.4025
2023-05-24T05:17:14.461Z,19.2952
2023-05-24T05:18:16.546Z,19.3731
2023-05-24T05:19:18.517Z,20.4395
2023-05-24T05:20:20.527Z,20.2438
2023-05-24T05:21:22.455Z,19.7406
2023-05-24T05:23:25.823Z,19.3978
2023-05-24T05:24:27.808Z,19.6297
2023-05-24T05:25:29.856Z,19.2247
2023-05-24T05:26:31.857Z,19.4895
2023-05-24T05:27:33.869Z,20.2645
2023-05-24T05:28:35.678Z,20.0294
2023-05-24T05:29:37.408Z,20.1957
2023-05-24T05:30:39.155Z,20.5401
2023-05-24T05:31:41.140Z,18.2419
2023-05-24T05:32:43.321Z,19.0641
2023-05-24T05:33:46.313Z,19.2279
2023-05-24T05:34:48.336Z,19.5547
2023-05-24T05:35:51.753Z,19.3356
2023-05-24T05:36:51.474Z,19.6416
2023-05-24T05:37:53.428Z,18.8764
2023-05-24T05:38:55.453Z,19.4817
2023-05-24T05:39:57.443Z,19.3238
2023-05-24T05:40:59.506Z,18.8366
2023-05-24T05:42:01.474Z,18.3274
2023-05-24T05:43:03.415Z,19.3820
2023-05-24T05:44:05.451Z,19.4293
2023-05-24T05:45:07.469Z,19.2305
2023-05-24T05:46:09.493Z,19.4097
2023-05-24T05:47:11.481Z,18.6737
2023-05-24T05:48:13.396Z,20.0536
2023-05-24T05:49:15.404Z,19.3723
2023-05-24T05:50:17.594Z,19.0919
2023-05-24T05:51:19.647Z,18.8077
2023-05-24T05:52:21.571Z,19.0411
2023-05-24T05:53:23.553Z,19.1564
2023-05-24T05:54:25.513Z,19.1506
2023-05-24T05:55:27.380Z,19.6993
2023-05-24T05:56:29.315Z,18.4190
2023-05-24T05:57:31.269Z,19.4841
2023-05-24T05:58:33.342Z,18.7147
2023-05-24T05:59:35.327Z,19.6805
2023-05-24T06:00:38.116Z,20.0148
2023-05-24T06:01:40.191Z,19.5593
2023-05-24T06:02:42.149Z,18.4959
2023-05-24T06:03:45.458Z,18.3010
2023-05-24T06:04:47.656Z,19.2122
2023-05-24T06:05:49.645Z,18.4240
2023-05-24T06:06:51.687Z,18.2908
2023-05-24T06:07:53.427Z,19.2507
2023-05-24T06:08:55.211Z,18.9929
2023-05-24T06:09:57.003Z,19.0767
2023-05-24T06:10:58.743Z,18.3999
2023-05-24T06:12:00.469Z,18.9227
2023-05-24T06:13:02.288Z,17.5607
2023-05-24T06:14:04.077Z,17.7527
2023-05-24T06:15:05.827Z,18.1538
2023-05-24T06:16:07.668Z,17.7507
2023-05-24T06:17:09.351Z,17.7764
2023-05-24T06:18:11.058Z,17.0234
2023-05-24T06:19:12.843Z,17.8787
2023-05-24T06:20:14.641Z,18.2699
2023-05-24T06:21:16.383Z,18.3931
2023-05-24T06:22:18.167Z,18.9618
2023-05-24T06:23:19.903Z,17.9329
2023-05-24T06:24:21.710Z,18.5584
2023-05-24T06:25:23.509Z,19.0058
2023-05-24T06:26:25.313Z,18.2068
2023-05-24T06:27:27.044Z,17.7478
2023-05-24T06:28:28.778Z,17.8885
2023-05-24T06:29:30.830Z,18.0506
2023-05-24T06:30:32.626Z,17.3448
2023-05-24T06:31:34.392Z,17.8330
2023-05-24T06:32:36.460Z,18.1283
2023-05-24T06:33:38.383Z,18.1773
2023-05-24T06:34:40.690Z,18.2344
2023-05-24T06:35:42.461Z,17.6228
2023-05-24T06:36:44.255Z,18.5112
2023-05-24T06:37:46.065Z,17.6324
2023-05-24T06:38:47.801Z,16.6562
2023-05-24T06:39:49.595Z,17.3795
2023-05-24T06:40:51.328Z,16.1781
2023-05-24T06:41:53.047Z,16.4146
2023-05-24T06:42:54.760Z,17.1498
2023-05-24T06:43:56.661Z,17.3885
2023-05-24T06:44:58.440Z,16.4694
2023-05-24T06:46:00.165Z,17.2696
2023-05-24T06:47:01.956Z,16.8601
2023-05-24T06:48:03.812Z,17.0750
2023-05-24T06:49:05.619Z,17.7014
2023-05-24T06:50:07.388Z,17.3152
2023-05-24T06:51:09.119Z,16.6700
2023-05-24T06:52:10.907Z,17.0440
2023-05-24T06:53:13.058Z,17.2732
2023-05-24T06:54:15.061Z,16.7282
2023-05-24T06:55:17.015Z,17.2308
2023-05-24T06:56:19.111Z,15.6036
2023-05-24T06:57:21.046Z,16.5211
2023-05-24T06:58:22.776Z,15.8894
2023-05-24T06:59:24.605Z,15.1718
2023-05-24T07:00:26.363Z,16.8348
2023-05-24T07:01:28.083Z,15.8925
2023-05-24T07:02:29.869Z,15.3716
2023-05-24T07:03:31.628Z,15.4740
2023-05-24T07:04:33.427Z,15.4686
2023-05-24T07:05:35.153Z,16.0730
2023-05-24T07:06:36.863Z,16.1837
2023-05-24T07:07:38.643Z,15.8509
2023-05-24T07:08:40.438Z,15.8133
2023-05-24T07:09:42.224Z,15.1057
2023-05-24T07:10:44.179Z,15.2927
2023-05-24T07:11:46.570Z,15.4027
2023-05-24T07:12:48.368Z,15.9439
2023-05-24T07:13:50.101Z,15.5250
2023-05-24T07:14:51.858Z,15.4991
2023-05-24T07:15:53.602Z,15.6475
2023-05-24T07:16:55.539Z,14.9515
2023-05-24T07:17:58.512Z,13.9566
2023-05-24T07:19:01.889Z,14.4587
2023-05-24T07:20:02.726Z,14.1401
2023-05-24T07:21:04.680Z,13.4867
2023-05-24T07:22:06.704Z,13.8491
2023-05-24T07:23:08.638Z,13.6727
2023-05-24T07:24:10.665Z,14.5824
2023-05-24T07:25:12.623Z,14.7215
2023-05-24T07:26:14.660Z,14.4133
2023-05-24T07:27:16.612Z,13.5963
2023-05-24T07:28:18.659Z,14.3327
2023-05-24T07:29:20.428Z,14.8347
2023-05-24T07:30:31.784Z,14.9765
2023-05-24T07:31:23.249Z,15.2864
2023-05-24T07:32:24.996Z,15.3644
2023-05-24T07:33:27.686Z,14.4682
2023-05-24T07:34:29.610Z,14.0314
2023-05-24T07:35:31.344Z,14.6225
2023-05-24T07:36:34.832Z,13.2630
2023-05-24T07:37:33.479Z,14.6160
2023-05-24T07:38:35.260Z,14.6490
2023-05-24T07:39:37.017Z,13.3857
2023-05-24T07:40:39.005Z,14.4162
2023-05-24T07:41:41.012Z,14.5081
2023-05-24T07:42:43.117Z,14.1698
2023-05-24T07:43:45.094Z,14.4721
2023-05-24T07:44:46.818Z,13.4388
2023-05-24T07:45:48.556Z,13.0533
2023-05-24T07:46:50.435Z,12.8865
2023-05-24T07:47:53.308Z,12.7332
2023-05-24T07:48:53.617Z,14.0032
2023-05-24T07:49:55.389Z,13.9404
2023-05-24T07:50:57.149Z,13.3580
2023-05-24T07:51:58.864Z,13.2086
2023-05-24T07:53:00.596Z,14.0481
2023-05-24T07:54:02.374Z,14.3176
2023-05-24T07:55:04.145Z,13.8657
2023-05-24T07:56:05.882Z,13.6826
2023-05-24T07:57:09.453Z,14.1873
2023-05-24T07:58:07.988Z,14.1267
2023-05-24T07:59:09.766Z,13.9405
2023-05-24T08:00:11.506Z,13.6550
2023-05-24T08:01:13.218Z,14.1527
2023-05-24T08:02:15.019Z,14.2273
2023-05-24T08:03:16.817Z,13.9833
2023-05-24T08:04:18.553Z,13.7308
2023-05-24T08:05:20.283Z,14.7595
2023-05-24T08:06:22.238Z,14.1919
2023-05-24T08:07:24.034Z,14.5424
2023-05-24T08:08:25.740Z,14.9397
2023-05-24T08:09:27.450Z,13.8076
2023-05-24T08:10:29.188Z,14.4770
2023-05-24T08:11:30.992Z,14.5698
2023-05-24T08:12:32.731Z,14.9122
2023-05-24T08:13:34.459Z,15.0983
2023-05-24T08:14:36.190Z,14.8992
2023-05-24T08:15:37.948Z,14.2524
2023-05-24T08:16:39.849Z,14.4742
2023-05-24T08:17:41.638Z,13.5154
2023-05-24T08:18:43.419Z,14.7252
2023-05-24T08:19:45.224Z,13.9785
2023-05-24T08:20:47.194Z,14.4193
2023-05-24T08:21:48.892Z,14.5318
2023-05-24T08:22:50.763Z,13.4665
2023-05-24T08:23:52.629Z,13.8098
2023-05-24T08:24:54.365Z,14.9521
2023-05-24T08:25:56.062Z,13.9111
2023-05-24T08:26:57.805Z,14.2225
2023-05-24T08:27:59.561Z,14.6679
2023-05-24T08:29:01.348Z,14.0921
2023-05-24T08:30:03.091Z,14.7748
2023-05-24T08:31:05.134Z,14.2966
2023-05-24T08:32:07.504Z,14.3007
2023-05-24T08:33:09.365Z,14.8403
2023-05-24T08:34:11.119Z,14.4061
2023-05-24T08:35:21.102Z,13.9199
2023-05-24T08:36:14.124Z,14.7809
2023-05-24T08:37:16.400Z,14.5918
2023-05-24T08:38:18.093Z,14.8083
2023-05-24T08:39:19.868Z,15.4336
2023-05-24T08:40:21.597Z,15.3152
2023-05-24T08:41:23.291Z,14.8632
2023-05-24T08:42:25.074Z,14.5060
2023-05-24T08:43:26.826Z,14.9693
2023-05-24T08:44:28.535Z,13.6513
2023-05-24T08:45:30.314Z,14.0868
2023-05-24T08:46:32.105Z,15.0636
2023-05-24T08:47:33.977Z,14.6674
2023-05-24T08:48:35.983Z,14.6873
2023-05-24T08:49:37.823Z,14.2145
2023-05-24T08:50:39.627Z,15.0747
2023-05-24T08:51:41.408Z,14.2144
2023-05-24T08:52:43.139Z,14.0323
2023-05-24T08:53:44.874Z,14.2263
2023-05-24T08:54:46.604Z,13.6265
2023-05-24T08:55:48.479Z,14.9996
2023-05-24T08:56:50.245Z,14.4329
2023-05-24T08:57:51.962Z,14.2439
2023-05-24T08:59:00.432Z,14.5391
2023-05-24T08:59:55.637Z,14.8609
2023-05-24T09:00:57.472Z,14.6151
2023-05-24T09:01:59.175Z,14.5051
2023-05-24T09:03:01.035Z,14.6035
2023-05-24T09:04:03.864Z,14.4486
2023-05-24T09:05:05.628Z,13.3580
2023-05-24T09:06:07.359Z,14.3126
2023-05-24T09:07:09.192Z,14.3312
2023-05-24T09:08:11.261Z,13.7336
2023-05-24T09:09:13.153Z,14.0969
2023-05-24T09:10:15.081Z,14.3547
2023-05-24T09:11:17.035Z,13.8816
2023-05-24T09:12:32.482Z,13.9366
2023-05-24T09:13:20.862Z,14.7037
2023-05-24T09:14:22.814Z,14.3698
2023-05-24T09:15:24.823Z,14.1097
2023-05-24T09:16:26.910Z,13.5618
2023-05-24T09:17:29.705Z,13.5692
2023-05-24T09:18:30.914Z,13.2655
2023-05-24T09:19:32.920Z,13.9635
2023-05-24T09:20:34.927Z,13.5496
2023-05-24T09:21:36.764Z,13.5105
2023-05-24T09:22:40.766Z,13.1867
2023-05-24T09:23:40.042Z,12.7568
2023-05-24T09:24:41.823Z,13.1918
2023-05-24T09:25:43.614Z,12.9778
2023-05-24T09:26:45.666Z,13.5798
2023-05-24T09:27:49.008Z,13.4469
2023-05-24T09:28:47.693Z,13.0940
2023-05-24T09:29:49.633Z,14.0388
2023-05-24T09:30:51.541Z,13.1720
2023-05-24T09:31:53.608Z,12.4688
2023-05-24T09:32:55.589Z,13.3813
2023-05-24T09:33:57.411Z,12.4102
2023-05-24T09:34:59.146Z,11.8268
2023-05-24T09:36:00.851Z,12.0325
2023-05-24T09:37:02.669Z,11.9824
2023-05-24T09:38:04.563Z,11.8110
2023-05-24T09:39:06.312Z,11.9165
2023-05-24T09:40:08.051Z,12.7147
2023-05-24T09:41:09.749Z,12.2511
2023-05-24T09:42:11.604Z,12.1711
2023-05-24T09:43:13.304Z,12.6147
2023-05-24T09:44:15.028Z,12.3040
2023-05-24T09:45:16.778Z,12.4586
2023-05-24T09:46:18.611Z,12.7455
2023-05-24T09:47:21.390Z,13.6734
2023-05-24T09:48:23.234Z,12.5615
2023-05-24T09:49:24.950Z,12.4372
2023-05-24T09:50:26.706Z,12.6171
2023-05-24T09:51:28.499Z,13.6566
2023-05-24T09:52:30.215Z,13.1030
2023-05-24T09:53:31.949Z,13.0658
2023-05-24T09:54:33.839Z,13.4588
2023-05-24T09:55:35.721Z,12.8142
2023-05-24T09:56:37.445Z,12.2009
2023-05-24T09:57:39.139Z,13.5460
2023-05-24T09:58:40.867Z,12.9803
2023-05-24T09:59:42.623Z,13.9804
2023-05-24T10:00:44.605Z,13.9300
2023-05-24T10:01:46.720Z,13.7950
2023-05-24T10:03:49.789Z,13.1595
2023-05-24T10:04:51.614Z,13.3202
2023-05-24T10:05:53.258Z,13.0873
2023-05-24T10:06:55.030Z,13.1993
2023-05-24T10:07:56.804Z,12.7002
2023-05-24T10:08:58.577Z,13.0620
2023-05-24T10:10:00.291Z,13.2135
2023-05-24T10:11:02.014Z,13.2902
2023-05-24T10:12:03.787Z,12.3561
2023-05-24T10:13:05.534Z,12.7836
2023-05-24T10:14:07.285Z,13.7067
2023-05-24T10:15:09.030Z,13.3620
2023-05-24T10:16:10.809Z,13.0006
2023-05-24T10:17:12.750Z,12.8297
2023-05-24T10:18:14.707Z,13.0421
2023-05-24T10:19:17.474Z,12.8620
2023-05-24T10:20:19.278Z,12.8637
2023-05-24T10:21:21.037Z,11.5142
2023-05-24T10:22:22.762Z,12.8649
2023-05-24T10:23:24.573Z,12.6216
2023-05-24T10:24:26.375Z,12.8365
2023-05-24T10:25:28.091Z,13.0125
2023-05-24T10:26:29.825Z,13.0117
2023-05-24T10:27:31.557Z,12.8772
2023-05-24T10:28:33.322Z,12.9333
2023-05-24T10:29:35.080Z,12.9273
2023-05-24T10:30:36.846Z,12.7335
2023-05-24T10:31:38.654Z,12.9073
2023-05-24T10:32:40.488Z,12.1932
2023-05-24T10:33:42.207Z,12.9699
2023-05-24T10:34:43.925Z,12.5971
2023-05-24T10:35:46.689Z,12.4147
2023-05-24T10:36:48.477Z,12.1309
2023-05-24T10:37:50.297Z,11.8900
2023-05-24T10:38:51.996Z,11.5183
2023-05-24T10:39:53.758Z,11.6249
2023-05-24T10:40:55.510Z,11.9643
2023-05-24T10:41:57.232Z,11.4362
2023-05-24T10:42:58.960Z,12.3135
2023-05-24T10:44:09.870Z,11.9644
2023-05-24T10:45:01.715Z,11.5443
2023-05-24T10:46:03.460Z,12.3659
2023-05-24T10:47:05.213Z,12.2053
2023-05-24T10:48:06.987Z,11.8326
2023-05-24T10:50:09.820Z,12.5439
2023-05-24T10:51:11.661Z,12.5969
2023-05-24T10:52:13.474Z,11.3065
2023-05-24T10:53:15.209Z,11.3246
2023-05-24T10:54:16.949Z,12.0942
2023-05-24T10:55:18.631Z,11.4348
2023-05-24T10:56:20.447Z,11.5102
2023-05-24T10:57:22.190Z,11.6994
2023-05-24T10:58:23.886Z,11.3139
2023-05-24T10:59:25.854Z,11.1905
2023-05-24T11:01:28.623Z,11.2404
2023-05-24T11:02:30.362Z,12.2157
2023-05-24T11:03:32.132Z,12.6867
2023-05-24T11:04:33.872Z,11.9691
2023-05-24T11:05:35.630Z,12.4463
2023-05-24T11:07:38.640Z,12.5292
2023-05-24T11:08:40.381Z,12.1078
2023-05-24T11:09:42.104Z,13.5168
2023-05-24T11:10:44.153Z,12.2868
2023-05-24T11:11:46.148Z,12.8220
2023-05-24T11:12:47.870Z,12.1172
2023-05-24T11:13:49.608Z,12.3238
2023-05-24T11:14:51.436Z,13.2383
2023-05-24T11:15:53.169Z,12.5585
2023-05-24T11:16:55.018Z,12.2817
2023-05-24T11:17:56.763Z,12.7758
2023-05-24T11:18:58.462Z,12.9365
2023-05-24T11:20:00.255Z,12.2962
2023-05-24T11:21:02.009Z,12.3051
2023-05-24T11:22:03.764Z,13.2286
2023-05-24T11:23:05.499Z,13.1916
2023-05-24T11:24:07.317Z,12.7240
2023-05-24T11:25:09.104Z,13.7292
2023-05-24T11:26:10.823Z,13.3317
2023-05-24T11:27:12.611Z,13.3192
2023-05-24T11:28:14.407Z,13.2653
2023-05-24T11:29:16.237Z,13.1733
2023-05-24T11:30:17.938Z,13.4955
2023-05-24T11:31:19.749Z,13.7867
2023-05-24T11:32:21.681Z,13.3499
2023-05-24T11:33:23.397Z,12.9144
2023-05-24T11:34:25.143Z,12.4708
2023-05-24T11:35:26.892Z,12.4109
2023-05-24T11:36:28.801Z,12.9886
2023-05-24T11:37:45.592Z,13.6899
2023-05-24T11:38:33.058Z,14.0792
2023-05-24T11:39:36.052Z,14.2685
2023-05-24T11:40:37.979Z,13.9381
2023-05-24T11:41:41.822Z,13.9225
2023-05-24T11:42:40.445Z,13.5179
2023-05-24T11:43:42.388Z,14.0743
2023-05-24T11:44:52.275Z,13.3944
2023-05-24T11:45:47.471Z,12.8877
2023-05-24T11:46:49.196Z,12.6857
2023-05-24T11:47:51.011Z,13.2519
2023-05-24T11:48:52.732Z,13.8455
2023-05-24T11:49:54.453Z,13.7228
2023-05-24T11:50:56.435Z,14.1429
2023-05-24T11:51:58.288Z,13.9083
2023-05-24T11:53:00.052Z,13.5514
2023-05-24T11:54:01.785Z,13.3249
2023-05-24T11:55:03.502Z,12.7795
2023-05-24T11:56:05.339Z,14.1383
2023-05-24T11:57:07.013Z,14.6667
2023-05-24T11:58:08.777Z,14.0292
2023-05-24T11:59:10.466Z,13.7758
2023-05-24T12:00:12.222Z,14.0208
2023-05-24T12:01:13.989Z,13.8386
2023-05-24T12:02:15.953Z,14.4502
2023-05-24T12:03:17.844Z,14.2866
2023-05-24T12:04:19.802Z,13.5395
2023-05-24T12:05:21.541Z,14.5494
2023-05-24T12:06:23.264Z,14.5152
2023-05-24T12:07:24.961Z,13.5910
2023-05-24T12:08:26.712Z,13.7065
2023-05-24T12:09:28.478Z,14.5414
2023-05-24T12:10:30.197Z,13.6964
2023-05-24T12:11:31.957Z,13.1688
2023-05-24T12:12:42.293Z,13.6872
2023-05-24T12:13:34.869Z,13.3927
2023-05-24T12:14:36.625Z,13.9475
2023-05-24T12:15:38.426Z,13.5867
2023-05-24T12:16:40.190Z,13.6974
2023-05-24T12:17:41.980Z,14.5784
2023-05-24T12:18:55.069Z,14.0298
2023-05-24T12:19:44.848Z,14.4606
2023-05-24T12:20:46.865Z,14.0226
2023-05-24T12:21:48.735Z,14.8220
2023-05-24T12:22:50.667Z,14.4990
2023-05-24T12:23:52.657Z,14.0212
2023-05-24T12:24:54.511Z,14.8065
2023-05-24T12:25:56.232Z,14.2176
2023-05-24T12:26:58.170Z,14.2552
2023-05-24T12:27:59.981Z,13.5936
2023-05-24T12:29:01.724Z,14.1977
2023-05-24T12:30:03.428Z,13.3839
2023-05-24T12:31:07.970Z,14.2068
2023-05-24T12:32:06.430Z,14.3204
2023-05-24T12:33:08.205Z,15.0754